Time;durP1;ratioP1;P1;durP2;ratioP2;P2;SDS_P1;SDS_P2;PMS_P1;PMS_P2;Temp;Humidity;BMP_temperature;BMP_pressure;BME280_temperature;BME280_humidity;BME280_pressure;Samples;Min_cycle;Max_cycle;Signal;HPM_P1;HPM_P2
2023/01/30 00:00:12;;;;;;;61.08;36.78;;;;;;;4.14;100.00;101761.38;5027305;28;20083;-66
2023/01/30 00:02:37;;;;;;;58.33;34.88;;;;;;;4.26;100.00;101758.34;5027792;28;20353;-67
2023/01/30 00:05:03;;;;;;;62.85;36.17;;;;;;;4.28;100.00;101753.63;5026153;28;20032;-67
2023/01/30 00:07:28;;;;;;;56.17;35.47;;;;;;;4.31;100.00;101754.13;5024355;28;20064;-60
2023/01/30 00:09:53;;;;;;;64.45;37.13;;;;;;;4.33;100.00;101765.69;5028300;28;20525;-67
2023/01/30 00:12:19;;;;;;;69.93;39.72;;;;;;;4.31;100.00;101769.56;5021118;28;20494;-67
2023/01/30 00:14:44;;;;;;;59.10;34.50;;;;;;;4.37;100.00;101750.75;5025051;28;20040;-67
2023/01/30 00:17:10;;;;;;;70.13;39.65;;;;;;;4.45;100.00;101733.56;5027071;28;20448;-64
2023/01/30 00:19:35;;;;;;;66.35;37.95;;;;;;;4.39;100.00;101739.69;5027735;28;20376;-66
2023/01/30 00:22:00;;;;;;;66.78;38.63;;;;;;;4.38;100.00;101743.44;5019318;28;20076;-62
2023/01/30 00:24:25;;;;;;;64.60;38.40;;;;;;;4.43;100.00;101743.78;5012870;28;20030;-67
2023/01/30 00:26:51;;;;;;;65.32;38.83;;;;;;;4.41;100.00;101751.25;5026186;28;20524;-67
2023/01/30 00:29:16;;;;;;;65.55;39.33;;;;;;;4.46;100.00;101745.28;5029888;28;20036;-65
2023/01/30 00:31:41;;;;;;;63.58;36.78;;;;;;;4.48;100.00;101746.84;5030689;28;20092;-67
2023/01/30 00:34:06;;;;;;;57.80;35.47;;;;;;;4.52;100.00;101731.03;5030589;28;20026;-67
2023/01/30 00:36:32;;;;;;;68.05;38.72;;;;;;;4.47;100.00;101733.41;5030009;28;20029;-67
2023/01/30 00:38:58;;;;;;;60.58;35.08;;;;;;;4.51;100.00;101734.75;5029626;28;20567;-67
2023/01/30 00:41:23;;;;;;;55.45;33.22;;;;;;;4.53;100.00;101722.69;5029977;28;20025;-67
2023/01/30 00:49:18;;;;;;;50.17;30.65;;;;;;;4.56;100.00;101735.09;5029914;28;20585;-65
2023/01/30 00:51:43;;;;;;;64.45;37.83;;;;;;;4.51;100.00;101737.47;5030644;28;20486;-62
2023/01/30 00:54:09;;;;;;;66.25;39.67;;;;;;;4.52;100.00;101729.16;5029162;28;20056;-64
2023/01/30 00:56:34;;;;;;;60.35;38.75;;;;;;;4.55;100.00;101723.38;5029242;28;20029;-66
2023/01/30 00:59:00;;;;;;;60.47;37.53;;;;;;;4.57;100.00;101729.50;5031633;28;20384;-66
2023/01/30 01:01:25;;;;;;;61.80;36.22;;;;;;;4.58;100.00;101714.88;5050806;28;20031;-66
2023/01/30 01:03:51;;;;;;;62.50;37.75;;;;;;;4.64;100.00;101716.06;5036674;28;20108;-64
2023/01/30 01:06:16;;;;;;;61.15;38.05;;;;;;;4.69;100.00;101717.25;5020582;28;20054;-66
2023/01/30 01:08:41;;;;;;;67.80;40.03;;;;;;;4.59;100.00;101719.28;5022561;28;20048;-65
2023/01/30 01:11:06;;;;;;;63.97;37.22;;;;;;;4.71;100.00;101706.19;5030479;28;20033;-67
2023/01/30 01:13:32;;;;;;;66.18;38.95;;;;;;;4.74;100.00;101691.41;5013838;28;20064;-66
2023/01/30 01:15:57;;;;;;;57.33;35.58;;;;;;;4.79;100.00;101687.13;5028648;28;20241;-67
2023/01/30 01:18:22;;;;;;;62.17;39.58;;;;;;;4.80;100.00;101691.56;5030856;28;20021;-67
2023/01/30 01:20:48;;;;;;;63.83;39.50;;;;;;;4.79;100.00;101689.00;5029779;28;20357;-67
2023/01/30 01:23:13;;;;;;;65.50;39.00;;;;;;;4.81;100.00;101686.97;5029129;28;20086;-61
2023/01/30 01:25:38;;;;;;;61.55;37.30;;;;;;;4.90;100.00;101684.06;5028169;28;20045;-64
2023/01/30 01:28:03;;;;;;;59.70;37.88;;;;;;;4.95;100.00;101686.25;5028482;28;20192;-67
2023/01/30 01:30:29;;;;;;;61.10;37.25;;;;;;;4.97;100.00;101675.19;5029650;28;20033;-67
2023/01/30 01:32:55;;;;;;;60.42;35.75;;;;;;;5.03;100.00;101675.34;5029793;28;20108;-67
2023/01/30 01:35:21;;;;;;;58.72;38.60;;;;;;;4.98;100.00;101685.91;5028676;28;20033;-67
2023/01/30 01:37:46;;;;;;;59.20;37.08;;;;;;;4.99;100.00;101682.16;5028565;28;20033;-67
2023/01/30 01:43:13;;;;;;;57.78;35.38;;;;;;;5.06;100.00;101669.53;5029652;28;20099;-67
2023/01/30 01:45:38;;;;;;;62.85;36.95;;;;;;;5.11;100.00;101664.44;5027764;28;20088;-61
2023/01/30 01:48:25;;;;;;;60.65;37.63;;;;;;;5.03;100.00;101652.72;5029739;28;20622;-67
2023/01/30 01:50:57;;;;;;;56.92;34.17;;;;;;;5.04;100.00;101638.94;5029922;28;20030;-66
2023/01/30 01:53:28;;;;;;;59.50;36.53;;;;;;;5.08;100.00;101640.28;5028255;28;20485;-67
2023/01/30 01:55:56;;;;;;;57.88;37.15;;;;;;;5.08;100.00;101645.75;5027944;28;20080;-67
2023/01/30 01:58:36;;;;;;;61.08;36.95;;;;;;;5.16;100.00;101640.25;5020052;28;20077;-67
2023/01/30 02:01:01;;;;;;;63.28;36.90;;;;;;;5.09;100.00;101632.97;5044452;28;20064;-66
2023/01/30 02:03:31;;;;;;;55.20;33.33;;;;;;;5.13;100.00;101640.63;5029940;28;20033;-66
2023/01/30 02:06:00;;;;;;;62.10;38.85;;;;;;;5.11;100.00;101629.03;5027312;28;20077;-66
2023/01/30 02:08:33;;;;;;;61.45;37.33;;;;;;;5.11;100.00;101633.63;5027950;28;20028;-66
2023/01/30 02:11:02;;;;;;;57.90;35.78;;;;;;;5.11;100.00;101629.03;5025387;28;20511;-66
2023/01/30 02:13:27;;;;;;;56.75;35.58;;;;;;;5.16;100.00;101628.50;5029302;28;20030;-67
2023/01/30 02:15:53;;;;;;;52.60;37.47;;;;;;;5.47;100.00;101612.19;5019673;28;20091;-67
2023/01/30 02:18:19;;;;;;;55.30;34.40;;;;;;;5.21;100.00;101610.59;5025624;28;20045;-66
2023/01/30 02:20:55;;;;;;;54.95;32.63;;;;;;;5.20;100.00;101622.53;5028510;28;20041;-67
2023/01/30 02:23:50;;;;;;;60.15;35.72;;;;;;;5.19;100.00;101615.41;5028015;28;20037;-67
2023/01/30 02:26:46;;;;;;;51.15;29.00;;;;;;;5.33;100.00;101610.25;5028991;28;20427;-65
2023/01/30 02:29:25;;;;;;;60.70;36.67;;;;;;;5.19;100.00;101598.22;5030491;28;20049;-61
2023/01/30 02:32:28;;;;;;;57.75;33.05;;;;;;;5.25;100.00;101592.06;5029645;28;20038;-68
2023/01/30 02:35:09;;;;;;;53.90;35.85;;;;;;;5.27;100.00;101589.13;5025480;28;20112;-67
2023/01/30 02:37:52;;;;;;;59.13;36.17;;;;;;;5.27;100.00;101608.19;5028133;28;20052;-67
2023/01/30 02:40:37;;;;;;;60.72;35.92;;;;;;;5.32;100.00;101609.41;5028400;28;20037;-66
2023/01/30 02:43:23;;;;;;;51.65;32.13;;;;;;;5.25;100.00;101600.22;5026913;28;20033;-67
2023/01/30 02:46:04;;;;;;;55.83;33.72;;;;;;;5.26;100.00;101592.91;5027943;28;20447;-60
2023/01/30 02:48:42;;;;;;;58.20;36.28;;;;;;;5.26;100.00;101579.28;5028052;28;20405;-67
2023/01/30 02:51:18;;;;;;;58.75;36.88;;;;;;;5.32;100.00;101573.09;5028369;28;20026;-61
2023/01/30 02:53:46;;;;;;;48.53;29.95;;;;;;;5.38;100.00;101575.16;5016476;28;20022;-67
2023/01/30 02:56:11;;;;;;;54.95;34.53;;;;;;;5.35;100.00;101572.75;5021696;28;20071;-67
2023/01/30 02:58:47;;;;;;;57.63;35.92;;;;;;;5.34;100.00;101576.53;5022610;28;20124;-61
2023/01/30 03:01:34;;;;;;;59.00;33.45;;;;;;;5.42;100.00;101566.44;5021785;28;20468;-67
2023/01/30 03:04:29;;;;;;;57.53;32.88;;;;;;;5.45;100.00;101570.66;5021684;28;20449;-65
2023/01/30 03:07:19;;;;;;;52.30;31.25;;;;;;;5.47;100.00;101572.19;5026225;28;20455;-66
2023/01/30 03:10:07;;;;;;;49.58;29.13;;;;;;;5.45;100.00;101562.50;5027798;28;20029;-67
2023/01/30 03:12:44;;;;;;;51.95;30.73;;;;;;;5.45;100.00;101566.06;5026945;28;20041;-67
2023/01/30 03:15:16;;;;;;;51.07;31.27;;;;;;;5.44;100.00;101558.06;5011791;28;20112;-67
2023/01/30 03:17:45;;;;;;;48.67;31.17;;;;;;;5.51;100.00;101558.19;5009049;28;20277;-67
2023/01/30 03:20:11;;;;;;;49.15;30.15;;;;;;;5.47;100.00;101554.97;5026847;28;21162;-67
2023/01/30 03:22:36;;;;;;;50.78;31.27;;;;;;;5.44;100.00;101558.91;5026764;28;20112;-61
2023/01/30 03:25:02;;;;;;;49.92;30.20;;;;;;;5.42;100.00;101555.53;5025695;28;20101;-66
2023/01/30 03:27:27;;;;;;;55.55;31.17;;;;;;;5.44;100.00;101549.91;5034707;28;20381;-67
2023/01/30 03:29:52;;;;;;;50.38;29.15;;;;;;;5.42;100.00;101551.94;5026929;28;20041;-66
2023/01/30 03:32:18;;;;;;;43.05;24.88;;;;;;;5.55;100.00;101541.31;5026148;28;20030;-61
2023/01/30 03:34:43;;;;;;;51.15;27.88;;;;;;;5.45;100.00;101541.53;5027309;28;20496;-65
2023/01/30 03:37:08;;;;;;;49.53;29.05;;;;;;;5.44;100.00;101536.28;5026830;28;20030;-63
2023/01/30 03:39:34;;;;;;;47.60;29.08;;;;;;;5.45;100.00;101543.41;5027769;28;20038;-67
2023/01/30 03:41:59;;;;;;;51.22;28.83;;;;;;;5.42;100.00;101550.09;5027256;28;20128;-62
2023/01/30 03:44:25;;;;;;;44.75;26.40;;;;;;;5.49;100.00;101539.31;5026739;28;20038;-66
2023/01/30 03:46:50;;;;;;;37.85;21.70;;;;;;;5.53;100.00;101543.38;5027248;28;20039;-66
2023/01/30 03:49:15;;;;;;;43.35;24.88;;;;;;;5.50;100.00;101538.28;5027739;28;20392;-66
2023/01/30 03:51:40;;;;;;;42.40;26.85;;;;;;;5.44;100.00;101544.47;5026479;28;20373;-66
2023/01/30 03:54:06;;;;;;;41.10;22.40;;;;;;;5.51;100.00;101537.25;5027011;28;20029;-62
2023/01/30 03:56:31;;;;;;;39.40;24.90;;;;;;;5.51;100.00;101545.41;5026680;28;20041;-64
2023/01/30 03:58:56;;;;;;;40.33;24.85;;;;;;;5.52;100.00;101540.81;5026933;28;20064;-66
2023/01/30 04:01:22;;;;;;;45.05;22.85;;;;;;;5.50;100.00;101546.44;5027449;28;20041;-65
2023/01/30 04:03:47;;;;;;;29.35;16.75;;;;;;;5.70;100.00;101544.94;5024390;28;20021;-64
2023/01/30 04:06:12;;;;;;;32.90;20.35;;;;;;;5.63;100.00;101540.41;5026874;28;20409;-64
2023/01/30 04:08:38;;;;;;;33.33;17.95;;;;;;;5.65;100.00;101535.63;5025699;28;20083;-64
2023/01/30 04:11:03;;;;;;;32.00;17.85;;;;;;;5.71;100.00;101537.63;5026686;28;20025;-66
2023/01/30 04:13:29;;;;;;;38.08;20.60;;;;;;;5.66;100.00;101540.03;5022469;28;20469;-60
2023/01/30 04:16:19;;;;;;;29.23;16.77;;;;;;;5.92;100.00;101532.34;5026469;28;20053;-63
2023/01/30 04:18:45;;;;;;;31.08;18.88;;;;;;;5.72;100.00;101528.41;5025069;28;20380;-66
2023/01/30 04:21:10;;;;;;;30.38;16.63;;;;;;;5.69;100.00;101535.09;5026457;28;20048;-67
2023/01/30 04:23:36;;;;;;;29.08;16.60;;;;;;;5.81;100.00;101534.66;5027287;28;20053;-65
2023/01/30 04:26:01;;;;;;;31.08;18.35;;;;;;;5.82;100.00;101533.63;5025212;28;20459;-66
2023/01/30 04:28:26;;;;;;;33.38;18.88;;;;;;;5.81;100.00;101534.66;5025099;28;20037;-67
2023/01/30 04:30:52;;;;;;;32.22;18.27;;;;;;;5.85;100.00;101525.94;5026591;28;20484;-67
2023/01/30 04:33:17;;;;;;;31.92;19.13;;;;;;;5.84;100.00;101526.13;5007319;28;20034;-66
2023/01/30 04:35:57;;;;;;;33.20;20.13;;;;;;;5.81;100.00;101523.75;5007532;28;20022;-67
2023/01/30 04:38:23;;;;;;;29.73;18.83;;;;;;;5.88;100.00;101522.84;5009560;28;20108;-66
2023/01/30 04:40:49;;;;;;;38.00;19.15;;;;;;;5.87;100.00;101534.75;5018117;28;20504;-65
2023/01/30 04:43:15;;;;;;;33.08;19.73;;;;;;;5.91;100.00;101527.06;5021564;28;20546;-66
2023/01/30 04:45:45;;;;;;;36.58;19.98;;;;;;;6.01;100.00;101524.97;5021017;28;20053;-66
2023/01/30 04:48:10;;;;;;;36.15;19.25;;;;;;;5.95;100.00;101536.63;5019510;28;20042;-66
2023/01/30 04:50:36;;;;;;;35.75;19.58;;;;;;;5.95;100.00;101539.34;5020780;28;20025;-65
2023/01/30 04:53:01;;;;;;;33.97;20.90;;;;;;;5.92;100.00;101539.69;5010284;28;20040;-61
2023/01/30 04:55:26;;;;;;;34.17;18.90;;;;;;;6.03;100.00;101541.13;5018808;28;20484;-63
2023/01/30 04:57:52;;;;;;;32.13;17.98;;;;;;;5.96;100.00;101532.84;5014628;28;20035;-62
2023/01/30 05:00:17;;;;;;;40.40;19.40;;;;;;;6.07;100.00;101529.69;5016523;28;20372;-67
2023/01/30 05:02:42;;;;;;;35.75;18.63;;;;;;;6.08;100.00;101530.53;5020561;28;20060;-61
2023/01/30 05:05:08;;;;;;;35.40;18.38;;;;;;;6.12;100.00;101529.13;5021496;28;20048;-65
2023/01/30 05:07:33;;;;;;;29.08;17.50;;;;;;;6.08;100.00;101539.53;5019912;28;20063;-67
2023/01/30 05:09:58;;;;;;;31.27;17.30;;;;;;;6.07;100.00;101537.84;5017696;28;20064;-67
2023/01/30 05:12:24;;;;;;;32.25;18.10;;;;;;;6.08;100.00;101545.00;5014446;28;20540;-61
2023/01/30 05:14:49;;;;;;;31.20;17.02;;;;;;;6.20;100.00;101539.97;5020363;28;20030;-66
2023/01/30 05:17:14;;;;;;;35.67;17.30;;;;;;;6.11;100.00;101533.72;5022920;28;20037;-66
2023/01/30 05:19:39;;;;;;;28.65;16.77;;;;;;;6.13;100.00;101541.72;5024081;28;20029;-67
2023/01/30 05:22:05;;;;;;;33.33;16.52;;;;;;;6.13;100.00;101542.59;5020791;28;20038;-65
2023/01/30 05:24:30;;;;;;;34.03;17.63;;;;;;;6.11;100.00;101533.72;5022099;28;20365;-66
2023/01/30 05:26:55;;;;;;;33.55;15.45;;;;;;;6.11;100.00;101541.91;5021679;28;20034;-66
2023/01/30 05:29:21;;;;;;;31.33;15.05;;;;;;;6.06;100.00;101536.16;5024177;28;20117;-67
2023/01/30 05:31:46;;;;;;;33.58;15.00;;;;;;;6.03;100.00;101531.06;5019845;28;20053;-64
2023/01/30 05:34:11;;;;;;;24.73;13.48;;;;;;;6.01;100.00;101532.31;5021562;28;20052;-66
2023/01/30 05:36:37;;;;;;;26.63;12.93;;;;;;;6.09;100.00;101529.50;5019082;28;20032;-67
2023/01/30 05:39:02;;;;;;;29.08;12.70;;;;;;;6.05;100.00;101528.19;5026242;28;20108;-67
2023/01/30 05:41:28;;;;;;;22.55;10.93;;;;;;;6.03;100.00;101527.50;5029306;28;20033;-68
2023/01/30 05:43:53;;;;;;;31.42;12.30;;;;;;;6.04;100.00;101521.03;5029137;28;20040;-64
2023/01/30 05:46:18;;;;;;;29.02;11.68;;;;;;;6.03;100.00;101532.94;5029049;28;20021;-67
2023/01/30 05:48:44;;;;;;;26.73;11.23;;;;;;;6.05;100.00;101537.22;5028849;28;20025;-67
2023/01/30 05:51:21;;;;;;;26.38;11.35;;;;;;;6.03;100.00;101536.53;5028781;28;20096;-68
2023/01/30 05:53:47;;;;;;;23.17;11.33;;;;;;;6.00;100.00;101526.00;5028795;28;20033;-64
2023/01/30 05:56:13;;;;;;;29.05;11.07;;;;;;;6.05;100.00;101526.31;5029438;28;20035;-67
2023/01/30 05:58:38;;;;;;;30.83;12.52;;;;;;;6.09;100.00;101541.25;5028535;28;20417;-59
2023/01/30 06:01:08;;;;;;;25.35;9.75;;;;;;;6.07;100.00;101554.22;5029362;28;20026;-63
2023/01/30 06:03:34;;;;;;;31.73;11.13;;;;;;;6.08;100.00;101550.44;5029885;28;20018;-67
2023/01/30 06:06:04;;;;;;;25.70;10.50;;;;;;;6.08;100.00;101553.19;5027741;28;20057;-67
2023/01/30 06:08:31;;;;;;;26.05;9.90;;;;;;;6.08;100.00;101561.38;5029292;28;20116;-65
2023/01/30 06:11:00;;;;;;;35.67;10.02;;;;;;;6.14;100.00;101566.09;5028279;28;20104;-66
2023/01/30 06:13:26;;;;;;;25.15;9.60;;;;;;;6.14;100.00;101566.09;5029367;28;20090;-67
2023/01/30 06:15:51;;;;;;;31.17;10.77;;;;;;;6.16;100.00;101569.47;5028499;28;20436;-67
2023/01/30 06:18:17;;;;;;;22.92;9.30;;;;;;;6.18;100.00;101575.63;5029004;28;20083;-62
2023/01/30 06:20:49;;;;;;;26.33;8.90;;;;;;;6.17;100.00;101573.91;5028673;28;20051;-67
2023/01/30 06:23:15;;;;;;;27.80;9.50;;;;;;;6.19;100.00;101584.66;5028085;28;20021;-66
2023/01/30 06:25:44;;;;;;;26.90;9.32;;;;;;;6.15;100.00;101577.84;5028271;28;20364;-60
2023/01/30 06:28:10;;;;;;;22.45;8.77;;;;;;;6.08;100.00;101583.19;5028736;28;20384;-67
2023/01/30 06:30:35;;;;;;;30.65;8.75;;;;;;;6.04;100.00;101594.66;5028787;28;20030;-65
2023/01/30 06:33:01;;;;;;;28.58;9.23;;;;;;;6.01;100.00;101597.75;5028561;28;20819;-68
2023/01/30 06:35:26;;;;;;;27.83;8.07;;;;;;;5.93;100.00;101585.88;5028495;28;20040;-67
2023/01/30 06:37:51;;;;;;;22.70;7.30;;;;;;;5.91;100.00;101606.13;5027920;28;20460;-68
2023/01/30 06:40:16;;;;;;;22.23;7.53;;;;;;;5.86;100.00;101603.94;5027946;28;20029;-65
2023/01/30 06:42:46;;;;;;;23.65;7.57;;;;;;;5.83;100.00;101595.28;5028157;28;20029;-67
2023/01/30 06:45:13;;;;;;;23.83;7.00;;;;;;;5.79;100.00;101596.69;5028407;28;20510;-63
2023/01/30 06:47:50;;;;;;;19.75;6.38;;;;;;;5.74;100.00;101599.97;5028238;28;20376;-65
2023/01/30 06:50:17;;;;;;;21.77;6.53;;;;;;;5.67;100.00;101591.63;5028144;28;20479;-64
2023/01/30 06:52:46;;;;;;;15.48;5.88;;;;;;;5.64;100.00;101600.19;5027558;28;20082;-67
2023/01/30 06:55:14;;;;;;;22.10;6.00;;;;;;;5.62;100.00;101585.88;5027878;28;20029;-66
2023/01/30 06:57:40;;;;;;;20.13;6.25;;;;;;;5.59;100.00;101588.13;5028175;28;20106;-66
2023/01/30 07:00:10;;;;;;;18.25;5.50;;;;;;;5.54;100.00;101580.50;5026437;28;20337;-66
2023/01/30 07:02:36;;;;;;;21.92;5.70;;;;;;;5.46;100.00;101577.81;5028597;28;20030;-68
2023/01/30 07:05:03;;;;;;;18.55;6.57;;;;;;;5.41;100.00;101593.84;5027380;28;20436;-67
2023/01/30 07:07:29;;;;;;;19.02;5.80;;;;;;;5.35;100.00;101586.38;5027127;28;20294;-68
2023/01/30 07:09:55;;;;;;;19.23;5.70;;;;;;;5.42;100.00;101581.91;5027086;28;20435;-65
2023/01/30 07:12:21;;;;;;;19.60;4.97;;;;;;;5.33;100.00;101596.63;5028309;28;20029;-67
2023/01/30 07:14:46;;;;;;;25.63;5.93;;;;;;;5.31;100.00;101596.78;5027703;28;20037;-64
2023/01/30 07:17:11;;;;;;;17.33;5.80;;;;;;;5.28;100.00;101601.75;5027912;28;20021;-65
2023/01/30 07:19:37;;;;;;;18.13;6.13;;;;;;;5.25;100.00;101607.53;5028111;28;20423;-66
2023/01/30 07:22:03;;;;;;;27.17;6.00;;;;;;;5.21;100.00;101607.03;5026987;28;20022;-61
2023/01/30 07:24:28;;;;;;;21.95;6.22;;;;;;;5.17;100.00;101612.00;5026991;28;20044;-66
2023/01/30 07:26:54;;;;;;;18.83;5.88;;;;;;;5.15;100.00;101619.50;5027322;28;20107;-65
2023/01/30 07:29:19;;;;;;;23.58;6.15;;;;;;;5.17;100.00;101613.84;5027857;28;20026;-66
2023/01/30 07:31:44;;;;;;;21.70;5.97;;;;;;;5.23;100.00;101628.66;5027122;28;20021;-64
2023/01/30 07:34:09;;;;;;;23.70;6.13;;;;;;;5.18;100.00;101621.88;5027702;28;20105;-66
2023/01/30 07:36:36;;;;;;;26.48;6.10;;;;;;;5.19;100.00;101629.00;5026610;28;20037;-67
2023/01/30 07:39:02;;;;;;;26.30;6.38;;;;;;;5.18;100.00;101634.66;5026968;28;20021;-66
2023/01/30 07:41:27;;;;;;;24.65;6.13;;;;;;;5.17;100.00;101641.09;5026850;28;20040;-68
2023/01/30 07:43:53;;;;;;;26.77;6.15;;;;;;;5.14;100.00;101628.69;5027054;28;20025;-68
2023/01/30 07:46:18;;;;;;;19.17;6.10;;;;;;;5.14;100.00;101628.69;5027595;28;20071;-61
2023/01/30 07:48:44;;;;;;;25.73;7.07;;;;;;;5.17;100.00;101639.25;5027544;28;20025;-67
2023/01/30 07:51:09;;;;;;;22.88;6.57;;;;;;;5.29;100.00;101644.31;5026452;28;20049;-68
2023/01/30 07:53:35;;;;;;;19.63;6.03;;;;;;;5.43;100.00;101638.97;5027696;28;20068;-68
2023/01/30 07:56:07;;;;;;;25.80;6.88;;;;;;;5.61;100.00;101637.84;5026600;28;20033;-63
2023/01/30 07:58:32;;;;;;;29.98;7.55;;;;;;;5.62;100.00;101640.38;5026928;28;20039;-65
2023/01/30 08:00:57;;;;;;;25.67;6.38;;;;;;;5.55;100.00;101642.13;5026364;28;20025;-67
2023/01/30 08:03:23;;;;;;;24.90;5.93;;;;;;;5.52;100.00;101644.34;5026752;28;20029;-66
2023/01/30 08:05:48;;;;;;;28.48;7.18;;;;;;;5.53;100.00;101641.47;5025440;28;20080;-62
2023/01/30 08:08:14;;;;;;;26.92;6.20;;;;;;;5.63;100.00;101639.38;5026809;28;20075;-67
2023/01/30 08:10:39;;;;;;;22.27;5.78;;;;;;;5.76;100.00;101646.09;5026693;28;20025;-68
2023/01/30 08:13:05;;;;;;;28.67;5.63;;;;;;;5.99;100.00;101649.75;5027774;28;20033;-68
2023/01/30 08:15:32;;;;;;;25.80;5.43;;;;;;;6.16;99.46;101659.50;5026517;28;20400;-63
2023/01/30 08:17:58;;;;;;;28.52;7.15;;;;;;;6.22;98.80;101653.31;5027410;28;20588;-68
2023/01/30 08:20:25;;;;;;;26.95;6.25;;;;;;;6.28;97.51;101653.59;5026555;28;20022;-61
2023/01/30 08:22:51;;;;;;;24.98;6.72;;;;;;;6.27;96.29;101660.09;5025942;28;20026;-67
2023/01/30 08:25:16;;;;;;;30.13;6.85;;;;;;;6.32;95.92;101654.94;5026852;28;20101;-68
2023/01/30 08:27:41;;;;;;;29.63;8.02;;;;;;;6.56;93.09;101662.91;5026526;28;20132;-68
2023/01/30 08:30:08;;;;;;;29.25;7.82;;;;;;;6.88;90.92;101660.91;5027522;28;20032;-66
2023/01/30 08:32:33;;;;;;;27.63;7.72;;;;;;;7.20;90.05;101666.03;5027573;28;20430;-63
2023/01/30 08:34:59;;;;;;;29.00;6.97;;;;;;;7.41;87.48;101664.41;5026110;28;20034;-64
2023/01/30 08:37:24;;;;;;;32.45;7.65;;;;;;;7.58;85.38;101663.16;5025951;28;20026;-65
2023/01/30 08:39:49;;;;;;;29.02;5.40;;;;;;;7.83;83.74;101660.94;5025739;28;20033;-66
2023/01/30 08:42:15;;;;;;;20.38;5.68;;;;;;;7.97;82.44;101659.19;5026618;28;20025;-67
2023/01/30 08:44:40;;;;;;;18.70;4.93;;;;;;;8.44;80.63;101672.31;5025617;28;20057;-64
2023/01/30 08:47:05;;;;;;;21.73;5.90;;;;;;;9.08;79.03;101669.47;5025580;28;20476;-64
2023/01/30 08:49:30;;;;;;;19.90;5.75;;;;;;;9.26;75.52;101663.47;5027242;28;20034;-64
2023/01/30 08:51:56;;;;;;;21.95;5.80;;;;;;;9.59;73.73;101662.78;5028587;28;20034;-64
2023/01/30 08:54:21;;;;;;;23.48;5.20;;;;;;;9.96;71.90;101664.19;5029005;28;20116;-67
2023/01/30 08:56:46;;;;;;;22.83;5.95;;;;;;;10.08;69.58;101668.00;5029417;28;20029;-67
2023/01/30 08:59:12;;;;;;;22.30;5.63;;;;;;;10.33;70.31;101683.94;5029787;28;20029;-67
2023/01/30 09:01:37;;;;;;;17.73;4.57;;;;;;;10.38;69.05;101685.00;5028237;28;20029;-68
2023/01/30 09:04:03;;;;;;;19.52;6.15;;;;;;;10.08;69.39;101691.88;5029306;28;20033;-68
2023/01/30 09:06:28;;;;;;;27.38;6.80;;;;;;;9.83;70.70;101686.97;5028179;28;20404;-66
2023/01/30 09:08:53;;;;;;;20.02;5.32;;;;;;;9.98;71.64;101694.16;5029826;28;20095;-67
2023/01/30 09:11:19;;;;;;;21.50;4.82;;;;;;;10.25;71.02;101706.97;5030323;28;20034;-68
2023/01/30 09:13:44;;;;;;;29.77;5.57;;;;;;;10.36;69.09;101702.75;5029387;28;20025;-68
2023/01/30 09:16:10;;;;;;;27.40;5.20;;;;;;;10.23;69.71;101714.50;5028976;28;20030;-67
2023/01/30 09:18:41;;;;;;;22.48;4.05;;;;;;;10.41;69.88;101715.84;5029989;28;20051;-66
2023/01/30 09:21:07;;;;;;;18.33;6.00;;;;;;;10.91;68.12;101707.03;5029613;28;20029;-66
2023/01/30 09:23:32;;;;;;;18.17;4.43;;;;;;;11.62;64.92;101709.00;5029677;28;20047;-61
2023/01/30 09:25:59;;;;;;;21.30;4.90;;;;;;;12.33;62.16;101721.84;5028821;28;20045;-65
2023/01/30 09:28:24;;;;;;;18.42;4.65;;;;;;;12.73;61.09;101716.06;5030058;28;20032;-61
2023/01/30 09:30:49;;;;;;;20.02;4.28;;;;;;;12.80;59.58;101724.28;5029219;28;20457;-70
2023/01/30 09:33:19;;;;;;;21.60;4.60;;;;;;;12.70;59.22;101708.25;5029769;28;20499;-68
2023/01/30 09:35:46;;;;;;;15.82;4.00;;;;;;;12.71;58.94;101715.44;5028719;28;20049;-65
2023/01/30 09:38:12;;;;;;;15.93;4.43;;;;;;;12.60;59.37;101732.69;5027970;28;20534;-65
2023/01/30 09:40:57;;;;;;;17.65;3.88;;;;;;;12.50;60.68;101746.13;5029358;28;20034;-69
2023/01/30 09:43:38;;;;;;;16.05;5.60;;;;;;;12.13;61.23;101734.88;5029586;28;20028;-69
2023/01/30 09:46:17;;;;;;;23.90;5.60;;;;;;;11.51;63.52;101733.59;5029792;28;20179;-69
2023/01/30 09:48:54;;;;;;;;;;;;;;;11.38;66.92;101732.56;5029823;28;20033;-65
2023/01/30 09:51:58;;;;;;;21.67;7.82;;;;;;;10.69;65.86;101737.66;5028485;28;19913;-66
2023/01/30 09:54:36;;;;;;;21.42;5.60;;;;;;;9.96;67.71;101740.19;5028916;28;20102;-67
2023/01/30 09:57:25;;;;;;;21.25;6.28;;;;;;;9.32;70.45;101744.03;5029041;28;20029;-67
2023/01/30 09:59:54;;;;;;;22.50;6.15;;;;;;;8.87;72.82;101765.44;5028481;28;20026;-68
2023/01/30 10:02:34;;;;;;;19.88;5.43;;;;;;;8.67;75.16;101757.03;5029087;28;20025;-65
2023/01/30 10:05:01;;;;;;;20.52;5.43;;;;;;;8.46;73.56;101740.56;5028602;28;20026;-68
2023/01/30 10:07:47;;;;;;;24.47;6.23;;;;;;;8.29;76.13;101759.94;5026670;28;20041;-66
2023/01/30 10:10:28;;;;;;;19.50;4.85;;;;;;;8.10;77.33;101760.56;5028537;28;20039;-67
2023/01/30 10:13:09;;;;;;;23.40;5.00;;;;;;;7.92;78.62;101762.88;5028617;28;20029;-65
2023/01/30 10:15:49;;;;;;;16.05;4.55;;;;;;;7.86;78.51;101769.97;5028822;28;20072;-62
2023/01/30 10:18:27;;;;;;;21.63;5.18;;;;;;;7.75;77.77;101775.88;5028862;28;20037;-68
2023/01/30 10:21:10;;;;;;;13.88;3.30;;;;;;;7.67;78.61;101776.84;5027273;28;20803;-66
2023/01/30 10:24:05;;;;;;;16.38;4.43;;;;;;;7.70;78.94;101764.66;5029304;28;20040;-65
2023/01/30 10:26:31;;;;;;;17.45;5.20;;;;;;;7.67;77.14;101757.69;5028701;28;20032;-67
2023/01/30 10:29:01;;;;;;;20.25;4.18;;;;;;;7.45;79.48;101786.84;5028041;28;20025;-68
2023/01/30 10:31:36;;;;;;;21.92;3.75;;;;;;;7.40;79.96;101796.59;5028818;28;20025;-66
2023/01/30 10:34:05;;;;;;;18.90;3.60;;;;;;;7.46;80.28;101799.47;5028051;28;20379;-64
2023/01/30 10:36:39;;;;;;;17.40;3.92;;;;;;;7.49;80.90;101796.34;5027946;28;20040;-67
2023/01/30 10:39:21;;;;;;;19.77;4.30;;;;;;;7.46;80.63;101785.78;5027087;28;20022;-65
2023/01/30 10:42:18;;;;;;;21.17;4.38;;;;;;;7.54;80.49;101799.34;5028063;28;20037;-68
2023/01/30 10:44:44;;;;;;;18.90;4.40;;;;;;;7.49;79.76;101806.41;5027632;28;20151;-65
2023/01/30 10:47:31;;;;;;;17.05;4.18;;;;;;;7.66;80.85;101797.03;5028390;28;20112;-67
2023/01/30 10:50:10;;;;;;;15.75;4.07;;;;;;;7.46;79.73;101809.56;5028138;28;20441;-65
2023/01/30 10:53:02;;;;;;;14.32;3.78;;;;;;;7.43;80.54;101807.19;5027829;28;21339;-66
2023/01/30 10:55:34;;;;;;;21.95;4.22;;;;;;;7.47;79.80;101795.69;5027564;28;20185;-67
2023/01/30 10:58:25;;;;;;;17.55;3.83;;;;;;;7.50;80.75;101787.13;5028083;28;20025;-66
2023/01/30 11:01:03;;;;;;;17.55;4.28;;;;;;;7.40;80.38;101797.47;5023273;28;20087;-64
2023/01/30 11:03:51;;;;;;;19.08;3.92;;;;;;;7.41;80.61;101807.38;5027123;28;20337;-67
2023/01/30 11:06:18;;;;;;;;;;;;;;;7.50;81.77;101810.84;5028255;28;20049;-66
2023/01/30 11:08:44;;;;;;;21.60;4.80;;;;;;;7.57;79.90;101805.50;5026237;28;19921;-65
2023/01/30 11:11:28;;;;;;;16.88;4.82;;;;;;;7.59;80.32;101804.25;5015381;28;20079;-68
2023/01/30 11:14:12;;;;;;;17.98;5.50;;;;;;;7.75;79.14;101795.88;5028853;28;20045;-68
2023/01/30 11:16:47;;;;;;;22.73;5.65;;;;;;;7.66;78.42;101786.09;5010202;28;20148;-68
2023/01/30 11:19:14;;;;;;;20.63;4.75;;;;;;;8.05;79.33;101793.13;5018146;28;20430;-67
2023/01/30 11:21:43;;;;;;;14.68;3.85;;;;;;;8.73;74.48;101783.63;5025777;28;20380;-67
2023/01/30 11:24:18;;;;;;;21.40;4.78;;;;;;;8.63;75.42;101794.03;5025962;28;20033;-66
2023/01/30 11:26:44;;;;;;;18.90;4.10;;;;;;;8.47;74.47;101797.88;5027995;28;20025;-65
2023/01/30 11:29:30;;;;;;;23.40;5.95;;;;;;;8.50;76.65;101786.53;5025720;28;20112;-64
2023/01/30 11:32:01;;;;;;;18.48;3.95;;;;;;;8.29;75.58;101798.25;5026733;28;20422;-66